createdAt,value
2023-03-07T00:00:52.772Z,7.00
2023-03-07T00:05:44.803Z,6.80
2023-03-07T00:10:36.959Z,6.07
2023-03-07T00:15:35.802Z,7.30
2023-03-07T00:20:28.187Z,6.27
2023-03-07T00:25:19.860Z,7.10
2023-03-07T00:30:14.880Z,6.70
2023-03-07T00:35:07.148Z,6.07
2023-03-07T00:39:58.836Z,6.33
2023-03-07T00:44:50.591Z,6.40
2023-03-07T00:49:42.344Z,7.00
2023-03-07T00:54:34.030Z,6.73
2023-03-07T00:59:25.702Z,6.63
2023-03-07T01:04:17.427Z,6.63
2023-03-07T01:09:09.502Z,6.83
2023-03-07T01:14:05.527Z,7.17
2023-03-07T01:19:05.164Z,6.77
2023-03-07T01:23:57.618Z,7.07
2023-03-07T01:28:52.310Z,7.60
2023-03-07T01:33:44.217Z,6.87
2023-03-07T01:38:35.897Z,6.87
2023-03-07T01:43:33.394Z,6.50
2023-03-07T01:48:26.148Z,6.70
2023-03-07T02:25:37.497Z,6.17
2023-03-07T02:40:43.107Z,7.00
2023-03-07T02:45:37.358Z,5.73
2023-03-07T02:50:29.161Z,5.80
2023-03-07T02:55:21.291Z,6.50
2023-03-07T03:00:13.753Z,6.03
2023-03-07T03:05:06.872Z,6.53
2023-03-07T03:09:58.540Z,5.40
2023-03-07T03:14:50.223Z,6.07
2023-03-07T03:19:42.120Z,6.23
2023-03-07T03:24:33.796Z,6.00
2023-03-07T03:29:25.970Z,6.40
2023-03-07T03:34:17.925Z,6.37
2023-03-07T03:39:11.013Z,6.03
2023-03-07T03:44:02.843Z,6.63
2023-03-07T03:48:55.564Z,6.30
2023-03-07T03:53:47.343Z,6.33
2023-03-07T03:58:40.381Z,6.60
2023-03-07T04:03:42.704Z,6.87
2023-03-07T04:08:35.622Z,6.47
2023-03-07T04:13:27.627Z,6.47
2023-03-07T04:18:19.375Z,6.37
2023-03-07T04:23:11.843Z,5.63
2023-03-07T04:28:04.304Z,5.93
2023-03-07T05:03:36.135Z,5.80
2023-03-07T05:08:29.491Z,5.60
2023-03-07T05:13:23.248Z,5.70
2023-03-07T05:18:15.316Z,6.57
2023-03-07T05:23:08.468Z,5.67
2023-03-07T05:28:01.089Z,5.83
2023-03-07T05:32:53.566Z,6.00
2023-03-07T05:42:52.016Z,5.13
2023-03-07T05:47:46.310Z,6.30
2023-03-07T05:57:45.104Z,5.40
2023-03-07T06:07:44.320Z,5.60
2023-03-07T06:12:40.806Z,6.03
2023-03-07T06:17:32.809Z,5.33
2023-03-07T06:22:29.256Z,6.13
2023-03-07T06:27:23.367Z,6.47
2023-03-07T06:32:15.806Z,6.00
2023-03-07T06:37:08.348Z,6.23
2023-03-07T06:47:06.725Z,5.73
2023-03-07T06:51:59.389Z,5.50
2023-03-07T07:02:01.549Z,6.57
2023-03-07T07:06:55.296Z,5.83
2023-03-07T07:11:50.705Z,5.77
2023-03-07T07:16:50.854Z,5.80
2023-03-07T07:21:50.897Z,5.63
2023-03-07T07:31:52.708Z,5.20
2023-03-07T08:02:17.367Z,4.77
2023-03-07T08:12:28.481Z,5.27
2023-03-07T08:28:37.828Z,5.17
2023-03-07T08:48:54.795Z,5.57
2023-03-07T09:09:11.685Z,4.67
2023-03-07T09:14:05.714Z,5.13
2023-03-07T09:29:15.311Z,5.10
2023-03-07T10:01:31.503Z,5.43
2023-03-07T10:06:58.279Z,5.87
2023-03-07T10:12:13.610Z,5.30
2023-03-07T10:18:04.353Z,5.03
2023-03-07T10:39:57.483Z,6.17
2023-03-07T11:07:05.167Z,5.73
2023-03-07T13:37:20.930Z,6.60
2023-03-07T13:42:49.439Z,6.97
2023-03-07T17:58:58.368Z,7.47
2023-03-07T19:21:26.865Z,7.37
2023-03-07T21:03:39.790Z,6.97
2023-03-07T21:29:37.629Z,7.33
2023-03-07T21:39:38.061Z,7.57
2023-03-07T22:56:05.008Z,6.50
2023-03-07T23:52:44.607Z,7.33
